Time;durP1;ratioP1;P1;durP2;ratioP2;P2;SDS_P1;SDS_P2;PMS_P1;PMS_P2;Temp;Humidity;BMP_temperature;BMP_pressure;BME280_temperature;BME280_humidity;BME280_pressure;Samples;Min_cycle;Max_cycle;Signal;HPM_P1;HPM_P2
2023/05/31 00:00:59;;;;;;;10.98;7.15;;;;;;;19.65;63.06;99376.16;4370343;32;33987;-86
2023/05/31 00:03:28;;;;;;;11.70;7.55;;;;;;;19.83;62.14;99365.25;4354149;32;33767;-86
2023/05/31 00:05:56;;;;;;;15.35;7.18;;;;;;;19.59;63.17;99369.25;4358337;32;33172;-86
2023/05/31 00:08:23;;;;;;;15.35;6.85;;;;;;;19.37;63.84;99363.56;4358601;32;34461;-85
2023/05/31 00:10:51;;;;;;;10.13;6.62;;;;;;;19.48;63.04;99363.34;4358644;32;34182;-86
2023/05/31 00:13:19;;;;;;;16.87;6.50;;;;;;;19.32;63.52;99361.88;4354453;32;34036;-86
2023/05/31 00:15:46;;;;;;;11.65;6.85;;;;;;;19.25;63.49;99360.31;4346999;32;33579;-85
2023/05/31 00:18:14;;;;;;;15.48;6.85;;;;;;;18.82;65.54;99367.19;4346519;32;34657;-87
2023/05/31 00:20:41;;;;;;;13.02;6.05;;;;;;;18.90;64.91;99362.69;4360518;32;35111;-85
2023/05/31 00:23:10;;;;;;;16.67;6.65;;;;;;;19.02;64.40;99352.84;4354134;32;33105;-85
2023/05/31 00:25:38;;;;;;;12.95;6.10;;;;;;;18.44;64.91;99363.41;4370608;32;33621;-86
2023/05/31 00:28:05;;;;;;;10.48;5.93;;;;;;;18.88;63.88;99351.34;4351218;32;34786;-85
2023/05/31 00:30:33;;;;;;;11.93;5.40;;;;;;;19.08;62.65;99350.97;4350984;32;35040;-86
2023/05/31 00:33:01;;;;;;;10.52;5.68;;;;;;;18.98;59.37;99346.78;4352501;32;35211;-85
2023/05/31 00:35:29;;;;;;;11.50;6.18;;;;;;;19.21;58.86;99343.72;4356205;32;32943;-84
2023/05/31 00:37:56;;;;;;;10.85;5.78;;;;;;;19.13;61.40;99350.88;4360112;32;34019;-84
2023/05/31 00:40:24;;;;;;;10.45;5.32;;;;;;;19.18;61.73;99349.03;4359740;32;35158;-86
2023/05/31 00:42:52;;;;;;;9.48;5.55;;;;;;;19.35;61.59;99351.31;4355217;32;33572;-86
2023/05/31 00:45:19;;;;;;;9.35;5.37;;;;;;;19.17;61.45;99352.56;4360874;32;34257;-85
2023/05/31 00:47:47;;;;;;;9.85;5.72;;;;;;;19.13;61.76;99353.50;4358939;32;33646;-86
2023/05/31 00:50:15;;;;;;;9.27;5.82;;;;;;;18.89;61.89;99352.19;4352117;32;33945;-85
2023/05/31 00:52:46;;;;;;;16.23;6.20;;;;;;;18.94;61.19;99347.72;4356345;32;33776;-86
2023/05/31 00:55:16;;;;;;;10.93;5.53;;;;;;;19.33;61.12;99347.88;4350008;32;33539;-87
2023/05/31 00:57:44;;;;;;;9.25;5.03;;;;;;;18.93;62.93;99354.72;4358603;32;34267;-84
2023/05/31 01:00:14;;;;;;;12.25;5.60;;;;;;;19.00;59.68;99349.38;4349902;32;35131;-85
2023/05/31 01:02:44;;;;;;;10.10;5.22;;;;;;;18.85;60.85;99353.16;4357782;32;34716;-87
2023/05/31 01:05:11;;;;;;;8.43;5.20;;;;;;;19.14;56.72;99342.12;4355181;32;34146;-87
2023/05/31 01:07:39;;;;;;;10.15;5.65;;;;;;;19.07;59.00;99340.50;4349282;32;34856;-86
2023/05/31 01:10:07;;;;;;;9.55;5.40;;;;;;;19.09;58.18;99342.22;4357103;32;34686;-84
2023/05/31 01:13:14;;;;;;;8.45;5.00;;;;;;;19.01;57.11;99345.84;4350949;32;34036;-85
2023/05/31 01:15:46;;;;;;;11.63;4.95;;;;;;;18.61;60.29;99349.16;4351264;32;33588;-86
2023/05/31 01:18:25;;;;;;;10.48;4.70;;;;;;;18.64;54.62;99344.72;4350534;32;33793;-85
2023/05/31 01:20:57;;;;;;;12.77;6.05;;;;;;;18.60;55.21;99334.28;4370490;32;35129;-87
2023/05/31 01:23:40;;;;;;;10.25;4.40;;;;;;;18.65;54.75;99335.09;4347968;32;33799;-86
2023/05/31 01:26:17;;;;;;;9.63;4.97;;;;;;;18.86;54.22;99334.72;4357301;32;33050;-87
2023/05/31 01:28:50;;;;;;;8.38;4.32;;;;;;;18.66;55.07;99332.44;4353412;32;33354;-86
2023/05/31 01:31:21;;;;;;;9.15;4.93;;;;;;;19.17;52.08;99332.41;4344571;32;33845;-86
2023/05/31 01:33:49;;;;;;;8.70;4.32;;;;;;;19.07;53.49;99327.34;4369561;32;33948;-86
2023/05/31 01:36:17;;;;;;;7.87;4.62;;;;;;;19.28;51.81;99326.94;4369441;32;34315;-87
2023/05/31 01:38:45;;;;;;;8.25;4.50;;;;;;;19.46;52.41;99330.94;4353068;32;33592;-86
2023/05/31 01:41:13;;;;;;;13.30;4.40;;;;;;;19.45;52.12;99337.09;4357800;32;34447;-84
2023/05/31 01:43:45;;;;;;;11.73;4.55;;;;;;;19.41;53.94;99333.66;4346231;32;32817;-85
2023/05/31 01:46:14;;;;;;;9.48;4.82;;;;;;;19.41;54.05;99335.44;4358616;32;33370;-86
2023/05/31 01:48:42;;;;;;;8.38;3.80;;;;;;;19.27;54.30;99327.81;4352388;32;34779;-85
2023/05/31 01:51:11;;;;;;;8.05;4.20;;;;;;;19.00;52.65;99328.34;4347542;32;34894;-87
2023/05/31 01:53:40;;;;;;;8.13;4.07;;;;;;;18.91;50.50;99324.16;4359581;32;34663;-86
2023/05/31 01:56:08;;;;;;;7.95;4.07;;;;;;;18.99;51.36;99327.50;4348379;32;34259;-85
2023/05/31 01:58:37;;;;;;;8.93;4.37;;;;;;;19.05;51.83;99334.38;4351878;32;33820;-85
2023/05/31 02:01:05;;;;;;;11.68;4.53;;;;;;;19.23;49.28;99331.41;4371259;32;35008;-86
2023/05/31 02:03:34;;;;;;;7.85;4.22;;;;;;;19.33;49.28;99327.72;4361096;32;34463;-87
2023/05/31 02:06:02;;;;;;;10.95;3.87;;;;;;;19.51;51.79;99331.72;4358485;32;33898;-87
2023/05/31 02:08:29;;;;;;;7.60;4.47;;;;;;;19.82;48.69;99331.09;4358449;32;34742;-87
2023/05/31 02:10:58;;;;;;;9.43;4.00;;;;;;;19.63;50.38;99331.50;4360432;32;34934;-86
2023/05/31 02:13:27;;;;;;;8.38;3.78;;;;;;;19.45;48.80;99331.84;4347651;32;33190;-85
2023/05/31 02:15:55;;;;;;;9.75;4.10;;;;;;;19.64;49.18;99332.34;4356928;32;34394;-86
2023/05/31 02:18:26;;;;;;;9.60;4.12;;;;;;;19.76;49.36;99332.09;4363888;32;32930;-86
2023/05/31 02:20:54;;;;;;;5.80;3.50;;;;;;;19.81;49.85;99335.50;4357889;32;34323;-86
2023/05/31 02:23:22;;;;;;;9.07;3.85;;;;;;;19.88;48.80;99333.56;4356225;32;34140;-84
2023/05/31 02:25:50;;;;;;;10.15;4.12;;;;;;;19.67;50.16;99348.06;4359239;32;33828;-85
2023/05/31 02:28:18;;;;;;;9.25;4.00;;;;;;;19.39;48.88;99342.47;4353336;32;33518;-87
2023/05/31 02:30:56;;;;;;;9.25;3.20;;;;;;;19.62;48.50;99347.28;4358037;32;34245;-87
2023/05/31 02:33:24;;;;;;;7.45;3.75;;;;;;;19.72;46.94;99335.69;4358383;32;34014;-88
2023/05/31 02:35:52;;;;;;;8.70;3.83;;;;;;;19.92;48.43;99340.50;4359019;32;33175;-87
2023/05/31 02:38:20;;;;;;;6.75;3.75;;;;;;;19.89;48.08;99341.47;4358517;32;33784;-86
2023/05/31 02:40:48;;;;;;;15.00;3.87;;;;;;;20.13;48.15;99341.78;4353459;32;35003;-87
2023/05/31 02:43:16;;;;;;;9.88;3.85;;;;;;;19.93;49.75;99345.75;4347384;32;33746;-85
2023/05/31 02:45:43;;;;;;;11.45;4.57;;;;;;;19.95;48.73;99344.84;4353530;32;34178;-86
2023/05/31 02:48:12;;;;;;;11.25;4.05;;;;;;;19.88;49.30;99342.34;4355598;32;34158;-86
2023/05/31 02:50:40;;;;;;;7.25;3.90;;;;;;;19.95;48.10;99347.47;4357044;32;34653;-86
2023/05/31 02:53:08;;;;;;;7.07;3.47;;;;;;;20.05;46.55;99349.00;4359269;32;34656;-87
2023/05/31 02:55:37;;;;;;;11.48;4.57;;;;;;;19.69;47.23;99348.91;4354385;32;34301;-86
2023/05/31 02:58:06;;;;;;;10.48;4.03;;;;;;;19.75;48.16;99346.16;4349578;32;34869;-85
2023/05/31 03:00:34;;;;;;;8.25;3.83;;;;;;;19.74;49.26;99357.56;4358710;32;33353;-86
2023/05/31 03:03:02;;;;;;;7.60;3.42;;;;;;;19.73;48.99;99352.31;4370421;32;33751;-86
2023/05/31 03:05:31;;;;;;;9.68;4.20;;;;;;;19.85;49.46;99358.22;4347492;32;33297;-86
2023/05/31 03:07:58;;;;;;;8.15;3.00;;;;;;;19.73;48.67;99357.59;4357722;32;33641;-86
2023/05/31 03:10:27;;;;;;;9.45;3.85;;;;;;;19.84;48.60;99353.81;4350246;32;34064;-85
2023/05/31 03:12:55;;;;;;;8.52;3.78;;;;;;;19.68;47.44;99349.81;4346893;32;32494;-86
2023/05/31 03:15:23;;;;;;;10.00;4.10;;;;;;;19.65;47.50;99366.50;4355055;32;33490;-86
2023/05/31 03:17:51;;;;;;;6.47;3.53;;;;;;;19.84;46.45;99353.81;4345260;32;34551;-85
2023/05/31 03:20:19;;;;;;;10.15;4.00;;;;;;;19.86;47.19;99354.66;4350288;32;34209;-86
2023/05/31 03:22:47;;;;;;;8.73;4.05;;;;;;;20.02;47.58;99359.59;4348921;32;34752;-86
2023/05/31 03:25:15;;;;;;;8.10;3.58;;;;;;;19.65;46.96;99361.25;4353400;32;34382;-85
2023/05/31 03:27:43;;;;;;;9.35;3.80;;;;;;;19.73;48.44;99368.97;4354722;32;34762;-86
2023/05/31 03:30:11;;;;;;;9.23;3.72;;;;;;;19.88;47.99;99371.28;4357556;32;35232;-86
2023/05/31 03:32:41;;;;;;;9.85;3.53;;;;;;;19.89;46.26;99361.63;4355601;32;32786;-86
2023/05/31 03:35:09;;;;;;;8.05;3.60;;;;;;;19.83;49.00;99369.66;4354428;32;34088;-87
2023/05/31 03:37:36;;;;;;;8.27;3.50;;;;;;;19.86;47.40;99375.72;4357811;32;34089;-82
2023/05/31 03:40:05;;;;;;;8.90;3.80;;;;;;;19.87;46.80;99364.28;4350295;32;33990;-84
2023/05/31 03:42:33;;;;;;;7.72;3.60;;;;;;;20.10;50.62;99373.44;4357636;32;34509;-84
2023/05/31 03:45:01;;;;;;;8.80;3.47;;;;;;;20.10;48.93;99373.44;4358990;32;34185;-84
2023/05/31 03:47:30;;;;;;;6.95;3.45;;;;;;;20.18;49.76;99374.97;4358936;32;34787;-85
2023/05/31 03:49:59;;;;;;;9.82;3.87;;;;;;;20.08;49.29;99381.38;4355167;32;33831;-86
2023/05/31 03:52:26;;;;;;;10.43;3.70;;;;;;;20.24;49.67;99379.25;4355441;32;33586;-85
2023/05/31 03:54:54;;;;;;;13.60;4.57;;;;;;;20.21;49.07;99379.31;4351888;32;33545;-86
2023/05/31 03:57:22;;;;;;;9.43;4.28;;;;;;;20.14;49.81;99383.00;4354664;32;34720;-86
2023/05/31 03:59:50;;;;;;;8.20;3.78;;;;;;;19.97;50.62;99379.91;4359132;32;34987;-85
2023/05/31 04:02:18;;;;;;;8.48;3.87;;;;;;;20.17;52.55;99386.44;4348905;32;34603;-85
2023/05/31 04:04:45;;;;;;;9.05;3.70;;;;;;;20.07;48.84;99384.88;4349055;32;33734;-85
2023/05/31 04:07:13;;;;;;;8.48;3.70;;;;;;;20.06;51.62;99391.06;4350378;32;33966;-85
2023/05/31 04:09:40;;;;;;;6.93;3.28;;;;;;;20.13;51.60;99394.44;4348903;32;34233;-85
2023/05/31 04:12:09;;;;;;;8.77;3.47;;;;;;;20.22;52.25;99398.63;4349211;32;33572;-85
2023/05/31 04:14:36;;;;;;;7.37;3.85;;;;;;;19.81;51.46;99398.66;4357401;32;33195;-85
2023/05/31 04:17:05;;;;;;;9.13;3.65;;;;;;;19.97;53.39;99387.78;4352047;32;34032;-86
2023/05/31 04:19:33;;;;;;;10.63;4.12;;;;;;;20.16;52.95;99397.88;4348751;32;34324;-86
2023/05/31 04:22:01;;;;;;;8.27;3.80;;;;;;;20.22;53.24;99399.47;4357634;32;33830;-86
2023/05/31 04:24:28;;;;;;;12.65;3.83;;;;;;;20.24;53.96;99402.94;4357951;32;32982;-85
2023/05/31 04:26:56;;;;;;;7.65;3.72;;;;;;;20.03;50.99;99399.03;4356945;32;34708;-86
2023/05/31 04:29:25;;;;;;;7.47;4.05;;;;;;;20.20;51.72;99401.28;4356697;32;35105;-84
2023/05/31 04:31:53;;;;;;;9.07;3.40;;;;;;;20.06;51.98;99401.59;4347493;32;34369;-86
2023/05/31 04:34:21;;;;;;;9.43;4.20;;;;;;;20.31;49.92;99404.56;4358085;32;33503;-86
2023/05/31 04:36:49;;;;;;;12.57;3.97;;;;;;;20.43;52.37;99403.41;4356931;32;34666;-86
2023/05/31 04:39:21;;;;;;;8.25;3.60;;;;;;;20.46;51.50;99402.47;4357119;32;35153;-84
2023/05/31 04:41:49;;;;;;;9.45;3.62;;;;;;;20.81;51.90;99397.22;4358493;32;33782;-86
2023/05/31 04:44:18;;;;;;;11.75;4.40;;;;;;;20.25;46.74;99412.56;4357582;32;33619;-86
2023/05/31 04:46:47;;;;;;;9.40;3.42;;;;;;;20.51;47.60;99403.25;4359572;32;34066;-85
2023/05/31 04:49:15;;;;;;;7.95;3.40;;;;;;;20.62;46.21;99401.22;4358652;32;33834;-86
2023/05/31 04:51:42;;;;;;;10.70;4.32;;;;;;;20.57;45.42;99405.72;4357022;32;34219;-84
2023/05/31 04:54:10;;;;;;;9.32;3.53;;;;;;;20.92;48.22;99406.63;4359170;32;33479;-85
2023/05/31 04:56:37;;;;;;;12.68;3.50;;;;;;;20.88;48.70;99406.72;4343400;32;34426;-84
2023/05/31 04:59:07;;;;;;;7.50;3.80;;;;;;;20.83;46.55;99415.63;4353892;32;33960;-86
2023/05/31 05:01:35;;;;;;;7.28;3.75;;;;;;;20.90;46.96;99410.16;4370575;32;33920;-85
2023/05/31 05:04:04;;;;;;;8.52;4.10;;;;;;;21.41;46.64;99402.72;4354127;32;31814;-87
2023/05/31 05:06:32;;;;;;;12.57;3.72;;;;;;;21.25;47.91;99416.31;4360941;32;33535;-86
2023/05/31 05:09:00;;;;;;;9.77;3.87;;;;;;;21.13;48.77;99411.34;4361451;32;34378;-86
2023/05/31 05:11:28;;;;;;;9.48;3.60;;;;;;;21.28;46.37;99410.06;4358312;32;34881;-87
2023/05/31 05:13:55;;;;;;;8.07;3.40;;;;;;;21.04;46.38;99416.84;4357625;32;32970;-83
2023/05/31 05:16:23;;;;;;;10.32;4.15;;;;;;;21.34;44.91;99413.44;4352257;32;33941;-85
2023/05/31 05:18:51;;;;;;;8.43;3.75;;;;;;;21.42;43.00;99407.94;4361399;32;34156;-85
2023/05/31 05:21:18;;;;;;;7.65;3.75;;;;;;;21.11;45.42;99413.16;4361269;32;34656;-84
2023/05/31 05:23:46;;;;;;;9.80;3.35;;;;;;;21.11;44.87;99410.53;4352686;32;32830;-85
2023/05/31 05:26:15;;;;;;;8.77;3.33;;;;;;;21.28;47.59;99408.28;4363605;32;33588;-83
2023/05/31 05:28:42;;;;;;;8.90;3.30;;;;;;;21.18;46.64;99412.09;4347829;32;34994;-86
2023/05/31 05:31:11;;;;;;;8.68;3.55;;;;;;;21.28;45.83;99410.06;4345292;32;32350;-84
2023/05/31 05:33:40;;;;;;;10.98;4.03;;;;;;;21.45;45.47;99422.84;4371717;32;33727;-85
2023/05/31 05:36:07;;;;;;;10.07;4.20;;;;;;;21.52;49.79;99416.50;4355895;32;34128;-87
2023/05/31 05:38:36;;;;;;;9.30;3.60;;;;;;;21.77;44.38;99420.13;4358050;32;33106;-87
2023/05/31 05:41:03;;;;;;;10.15;3.87;;;;;;;21.79;43.28;99417.47;4361052;32;34719;-88
2023/05/31 05:43:31;;;;;;;8.18;3.08;;;;;;;21.84;43.72;99420.84;4349998;32;33737;-87
2023/05/31 05:46:00;;;;;;;8.48;3.78;;;;;;;21.79;44.46;99418.34;4360944;32;33830;-89
2023/05/31 05:48:28;;;;;;;10.13;3.55;;;;;;;21.64;44.07;99417.91;4359780;32;33476;-88
2023/05/31 05:50:55;;;;;;;10.63;3.55;;;;;;;21.61;42.93;99414.44;4359589;32;34511;-89
2023/05/31 05:53:23;;;;;;;7.70;3.42;;;;;;;21.92;44.03;99417.97;4347347;32;33655;-89
2023/05/31 05:55:52;;;;;;;7.82;3.50;;;;;;;21.89;43.68;99424.19;4345245;33;34815;-88
2023/05/31 05:58:21;;;;;;;6.45;2.75;;;;;;;22.17;44.56;99421.66;4345385;33;34152;-88
2023/05/31 06:00:52;;;;;;;8.20;3.22;;;;;;;22.24;43.02;99420.56;4346511;32;32170;-88
2023/05/31 06:03:20;;;;;;;11.02;3.00;;;;;;;22.45;43.27;99426.94;4345038;33;33198;-88
2023/05/31 06:05:48;;;;;;;8.68;3.95;;;;;;;22.72;42.77;99426.97;4346039;33;33618;-86
2023/05/31 06:08:15;;;;;;;17.77;3.83;;;;;;;23.07;41.80;99423.19;4349000;32;33870;-88
2023/05/31 06:10:43;;;;;;;7.18;3.08;;;;;;;23.14;41.43;99422.03;4356647;32;34598;-86
2023/05/31 06:13:11;;;;;;;7.82;2.87;;;;;;;23.30;40.43;99431.19;4359872;32;33262;-86
2023/05/31 06:15:39;;;;;;;10.10;3.17;;;;;;;23.34;39.76;99429.31;4367619;32;33571;-85
2023/05/31 06:18:08;;;;;;;9.75;3.47;;;;;;;23.28;39.86;99433.00;4367263;32;33747;-86
2023/05/31 06:20:35;;;;;;;8.45;3.00;;;;;;;23.17;40.49;99435.16;4375807;32;34801;-88
2023/05/31 06:23:03;;;;;;;7.37;3.30;;;;;;;23.16;39.61;99433.44;4376013;32;33023;-86
2023/05/31 06:25:31;;;;;;;9.82;3.53;;;;;;;22.98;40.15;99431.41;4356397;32;34079;-88
2023/05/31 06:27:58;;;;;;;9.82;3.45;;;;;;;23.19;41.10;99432.47;4360156;32;34200;-86
2023/05/31 06:30:26;;;;;;;12.05;3.33;;;;;;;23.20;41.05;99442.13;4360797;32;34134;-87
2023/05/31 06:32:55;;;;;;;8.15;3.08;;;;;;;23.30;40.73;99436.47;4361154;32;32783;-88
2023/05/31 06:35:23;;;;;;;7.07;3.33;;;;;;;22.99;41.05;99441.94;4361029;32;34885;-87
2023/05/31 06:37:53;;;;;;;10.25;3.95;;;;;;;22.83;41.63;99438.91;4360747;32;34148;-87
2023/05/31 06:40:23;;;;;;;6.62;3.65;;;;;;;23.11;41.40;99439.78;4361085;32;33950;-87
2023/05/31 06:42:51;;;;;;;7.62;3.15;;;;;;;23.33;40.59;99437.28;4359182;32;33214;-87
2023/05/31 06:45:19;;;;;;;12.13;3.70;;;;;;;23.46;40.91;99435.94;4360312;32;33850;-87
2023/05/31 06:47:48;;;;;;;8.10;3.80;;;;;;;23.60;41.15;99438.06;4360846;32;33815;-87
2023/05/31 06:50:19;;;;;;;10.10;3.55;;;;;;;23.52;40.89;99430.41;4360678;32;33316;-87
2023/05/31 06:52:47;;;;;;;10.30;3.22;;;;;;;23.49;38.90;99438.47;4360994;32;33711;-89
2023/05/31 06:55:18;;;;;;;11.50;3.67;;;;;;;24.08;39.21;99443.38;4355936;32;34175;-86
2023/05/31 06:57:46;;;;;;;8.85;3.33;;;;;;;24.07;39.50;99443.44;4369202;32;35023;-87
2023/05/31 07:00:14;;;;;;;8.75;3.47;;;;;;;24.34;38.33;99446.81;4345862;33;33774;-87
2023/05/31 07:02:42;;;;;;;9.80;3.87;;;;;;;24.39;39.24;99442.22;4345664;33;33177;-86
2023/05/31 07:05:09;;;;;;;10.30;3.35;;;;;;;24.57;39.00;99441.50;4349114;32;33845;-87
2023/05/31 07:07:37;;;;;;;11.75;3.42;;;;;;;24.74;38.72;99444.34;4360817;32;35140;-87
2023/05/31 07:10:05;;;;;;;8.65;3.30;;;;;;;24.58;39.11;99450.31;4359433;32;33724;-87
2023/05/31 07:12:32;;;;;;;6.43;3.10;;;;;;;24.57;38.64;99448.59;4360784;32;33421;-87
2023/05/31 07:15:00;;;;;;;7.87;2.92;;;;;;;24.80;38.72;99460.91;4360667;32;34273;-87
2023/05/31 07:17:29;;;;;;;9.63;3.10;;;;;;;24.89;37.31;99465.81;4360519;32;34086;-87
2023/05/31 07:19:57;;;;;;;7.15;3.47;;;;;;;24.99;37.80;99456.56;4360763;32;34151;-87
2023/05/31 07:22:24;;;;;;;10.98;3.40;;;;;;;24.80;37.39;99451.16;4360596;32;33305;-87
2023/05/31 07:24:52;;;;;;;7.93;2.97;;;;;;;24.93;37.63;99451.53;4359143;32;33009;-87
2023/05/31 07:27:21;;;;;;;12.48;3.70;;;;;;;24.54;38.01;99465.47;4360392;32;35041;-87
2023/05/31 07:29:49;;;;;;;7.62;2.92;;;;;;;24.93;36.47;99454.19;4359412;32;34441;-87
2023/05/31 07:48:07;;;;;;;15.23;4.05;;;;;;;24.48;37.58;99463.06;4864722;27;20118;-84
2023/05/31 07:50:35;;;;;;;11.27;3.87;;;;;;;24.48;38.98;99458.63;4361170;32;33673;-84
2023/05/31 07:53:02;;;;;;;10.65;3.92;;;;;;;24.63;38.72;99458.94;4360927;32;33952;-85
2023/05/31 07:55:30;;;;;;;9.52;3.40;;;;;;;24.84;38.65;99463.38;4360884;32;33356;-84
2023/05/31 07:57:58;;;;;;;11.63;3.75;;;;;;;24.90;37.04;99456.97;4347548;32;34769;-85
2023/05/31 08:00:25;;;;;;;8.13;3.75;;;;;;;24.46;38.01;99464.91;4347195;32;33332;-86
2023/05/31 08:02:56;;;;;;;6.72;3.03;;;;;;;24.50;37.23;99462.06;4360086;32;33159;-85
2023/05/31 08:05:24;;;;;;;9.60;3.22;;;;;;;24.73;38.30;99463.78;4347711;32;33837;-85
2023/05/31 08:07:52;;;;;;;9.13;3.75;;;;;;;24.28;38.22;99467.34;4360814;32;34897;-84
2023/05/31 08:10:20;;;;;;;11.60;3.40;;;;;;;24.63;38.06;99458.94;4359730;32;33629;-84
2023/05/31 08:12:47;;;;;;;8.10;3.30;;;;;;;24.49;37.64;99473.59;4360619;32;34001;-85
2023/05/31 08:15:15;;;;;;;7.57;3.37;;;;;;;24.43;37.19;99463.22;4360661;32;33711;-85
2023/05/31 08:17:43;;;;;;;10.10;2.97;;;;;;;24.78;36.67;99468.06;4360948;32;33687;-86
2023/05/31 08:20:12;;;;;;;9.45;3.72;;;;;;;24.95;36.42;99460.28;4347369;32;34914;-84
2023/05/31 08:22:42;;;;;;;9.00;3.47;;;;;;;24.81;36.05;99454.66;4346947;32;32981;-84
2023/05/31 08:25:12;;;;;;;8.07;3.90;;;;;;;24.90;34.71;99452.50;4347325;32;33847;-86
2023/05/31 08:27:40;;;;;;;8.00;3.08;;;;;;;25.20;34.84;99446.91;4360698;32;34630;-84
2023/05/31 08:30:09;;;;;;;7.78;3.58;;;;;;;25.55;35.71;99455.97;4347170;32;34082;-85
2023/05/31 08:32:40;;;;;;;7.60;3.60;;;;;;;24.92;34.82;99460.41;4360648;32;33575;-84
2023/05/31 08:35:11;;;;;;;7.15;2.92;;;;;;;25.35;34.61;99450.69;4360751;32;33172;-84
2023/05/31 08:37:40;;;;;;;9.95;3.42;;;;;;;25.41;36.06;99459.22;4360256;32;34666;-84
2023/05/31 08:40:08;;;;;;;10.10;3.03;;;;;;;25.25;35.70;99460.81;4361199;32;34168;-85
2023/05/31 08:42:52;;;;;;;10.05;3.28;;;;;;;25.51;34.88;99461.50;4362400;32;33774;-84
2023/05/31 08:45:20;;;;;;;7.25;2.78;;;;;;;25.46;34.22;99453.72;4362553;32;34096;-84
2023/05/31 08:47:55;;;;;;;14.25;4.22;;;;;;;26.03;34.98;99460.06;4349990;32;34054;-85
2023/05/31 08:50:26;;;;;;;7.70;3.05;;;;;;;26.66;34.68;99457.94;4377424;32;34974;-85
2023/05/31 08:52:54;;;;;;;9.70;3.60;;;;;;;26.32;32.71;99447.19;4351879;32;33077;-85
2023/05/31 08:55:23;;;;;;;8.60;2.95;;;;;;;26.31;34.83;99456.97;4363420;32;33558;-84
2023/05/31 08:57:52;;;;;;;9.30;3.05;;;;;;;26.62;33.06;99451.06;4377449;32;34029;-84
2023/05/31 09:00:20;;;;;;;8.35;4.05;;;;;;;26.80;34.38;99444.00;4364009;32;33929;-85
2023/05/31 09:02:48;;;;;;;8.65;3.05;;;;;;;26.61;33.51;99451.16;4363895;32;34809;-85
2023/05/31 09:05:16;;;;;;;8.45;3.45;;;;;;;26.87;34.17;99449.88;4363721;32;34036;-84
2023/05/31 09:07:43;;;;;;;6.10;3.33;;;;;;;26.86;33.57;99449.03;4377133;32;33743;-84
2023/05/31 09:10:13;;;;;;;8.18;3.05;;;;;;;26.41;33.24;99446.75;4377262;32;33803;-84
2023/05/31 09:12:41;;;;;;;8.32;3.53;;;;;;;26.79;33.73;99449.41;4377264;32;33473;-84
2023/05/31 09:15:14;;;;;;;9.98;3.78;;;;;;;26.61;34.39;99443.16;4363511;32;33864;-84
2023/05/31 09:17:46;;;;;;;9.65;3.60;;;;;;;26.24;32.06;99444.87;4363880;32;34772;-84
2023/05/31 09:20:14;;;;;;;11.38;3.72;;;;;;;26.42;33.58;99443.16;4377141;32;35067;-84
2023/05/31 09:22:42;;;;;;;7.60;3.10;;;;;;;25.83;33.55;99445.00;4377011;32;34059;-86
2023/05/31 09:25:09;;;;;;;10.50;4.12;;;;;;;25.84;33.74;99444.09;4363512;32;33007;-85
2023/05/31 09:27:38;;;;;;;11.77;3.47;;;;;;;26.03;34.45;99451.22;4377231;32;33402;-84
2023/05/31 09:30:10;;;;;;;10.05;3.47;;;;;;;26.18;33.25;99439.88;4363707;32;34169;-84
2023/05/31 09:32:38;;;;;;;7.75;3.50;;;;;;;26.29;34.26;99440.25;4377296;32;34345;-86
2023/05/31 09:35:14;;;;;;;7.78;3.37;;;;;;;25.80;34.16;99449.59;4363290;32;33849;-84
2023/05/31 09:37:43;;;;;;;8.43;3.35;;;;;;;25.99;34.26;99445.19;4376973;32;33444;-84
2023/05/31 09:40:31;;;;;;;13.25;4.07;;;;;;;25.89;33.86;99439.41;4363351;32;33825;-84
2023/05/31 09:43:00;;;;;;;10.70;4.20;;;;;;;25.82;33.33;99437.97;4363626;32;33860;-85
2023/05/31 09:45:30;;;;;;;9.02;3.40;;;;;;;26.20;34.07;99440.66;4363303;32;34215;-85
2023/05/31 09:47:57;;;;;;;10.88;3.75;;;;;;;26.03;33.77;99444.13;4363633;32;33856;-84
2023/05/31 09:50:25;;;;;;;12.60;3.60;;;;;;;25.86;33.62;99439.56;4377047;32;33881;-84
2023/05/31 09:52:59;;;;;;;10.20;3.85;;;;;;;25.89;33.95;99438.56;4362540;32;34664;-85
2023/05/31 09:55:39;;;;;;;6.47;3.08;;;;;;;26.43;32.92;99432.44;4363643;32;33780;-84
2023/05/31 09:58:06;;;;;;;10.52;3.53;;;;;;;26.71;32.96;99439.13;4377265;32;33811;-84
2023/05/31 10:00:34;;;;;;;9.57;3.62;;;;;;;26.89;33.13;99437.34;4376951;32;34137;-84
2023/05/31 10:03:03;;;;;;;9.75;3.53;;;;;;;26.51;32.57;99437.41;4363231;32;33772;-84
2023/05/31 10:05:31;;;;;;;11.10;3.70;;;;;;;26.97;35.55;99439.63;4351157;32;32694;-85
2023/05/31 10:07:59;;;;;;;7.68;3.22;;;;;;;27.32;32.17;99430.75;4362863;32;33515;-86
2023/05/31 10:10:27;;;;;;;11.50;3.65;;;;;;;27.54;32.56;99427.84;4376909;32;34086;-84
2023/05/31 10:12:57;;;;;;;5.47;3.03;;;;;;;27.93;31.02;99431.13;4377118;32;33844;-84
2023/05/31 10:15:27;;;;;;;9.07;3.83;;;;;;;27.68;31.03;99424.41;4363609;32;34080;-85
2023/05/31 10:18:01;;;;;;;8.43;4.60;;;;;;;27.79;30.09;99432.72;4363515;32;33830;-84
2023/05/31 10:20:39;;;;;;;8.85;3.72;;;;;;;27.61;30.38;99431.00;4363291;32;34031;-84
2023/05/31 10:23:16;;;;;;;6.72;3.47;;;;;;;27.56;30.48;99439.25;4363044;32;33931;-84
2023/05/31 10:25:49;;;;;;;9.75;3.50;;;;;;;27.94;32.33;99428.38;4363353;32;32939;-84
2023/05/31 10:28:21;;;;;;;11.65;3.60;;;;;;;28.02;31.65;99428.81;4376704;32;33744;-84
2023/05/31 10:33:40;;;;;;;9.40;3.55;;;;;;;28.30;33.27;99413.97;4376804;32;34899;-84
2023/05/31 10:36:07;;;;;;;11.12;3.80;;;;;;;28.38;30.25;99411.75;4362927;32;34336;-84
2023/05/31 10:38:52;;;;;;;8.82;4.35;;;;;;;28.35;30.25;99414.56;4376862;32;34866;-84
2023/05/31 10:41:22;;;;;;;7.87;3.78;;;;;;;27.82;31.91;99411.25;4376745;32;33702;-85
2023/05/31 10:44:04;;;;;;;13.20;4.10;;;;;;;28.47;31.01;99416.56;4363350;32;33874;-84
2023/05/31 10:46:35;;;;;;;7.87;3.53;;;;;;;28.01;29.66;99413.78;4376855;32;34252;-85
2023/05/31 10:49:04;;;;;;;12.98;4.07;;;;;;;28.44;30.94;99414.06;4362836;32;34748;-85
2023/05/31 10:51:39;;;;;;;10.00;4.10;;;;;;;28.49;29.95;99414.69;4350864;32;34121;-84
2023/05/31 10:54:08;;;;;;;8.85;4.18;;;;;;;28.22;30.57;99410.84;4376534;32;34334;-84
2023/05/31 10:56:38;;;;;;;7.95;4.07;;;;;;;28.34;31.72;99412.84;4363144;32;33677;-84
2023/05/31 10:59:08;;;;;;;10.52;4.37;;;;;;;28.40;33.66;99415.19;4376842;32;33783;-84
2023/05/31 11:01:36;;;;;;;12.63;4.03;;;;;;;28.62;30.69;99405.00;4363004;32;33845;-85
2023/05/31 11:04:18;;;;;;;9.00;3.72;;;;;;;28.88;30.25;99407.97;4376666;32;33837;-85
2023/05/31 11:06:47;;;;;;;8.57;3.58;;;;;;;28.50;29.58;99412.88;4350674;32;33541;-84
2023/05/31 11:09:17;;;;;;;8.93;3.55;;;;;;;28.28;30.92;99402.53;4362953;32;33832;-86
2023/05/31 11:11:47;;;;;;;11.30;4.53;;;;;;;28.84;28.74;99396.63;4363804;32;34516;-87
2023/05/31 11:14:25;;;;;;;8.98;4.10;;;;;;;28.87;30.11;99400.94;4363610;32;33513;-84
2023/05/31 11:16:53;;;;;;;9.40;3.85;;;;;;;28.64;28.53;99401.38;4376342;32;33001;-84
2023/05/31 11:19:28;;;;;;;10.18;4.45;;;;;;;28.62;28.37;99396.16;4376304;32;34106;-84
2023/05/31 11:22:18;;;;;;;9.80;4.30;;;;;;;28.41;29.35;99394.69;4362926;32;34608;-85
2023/05/31 11:24:50;;;;;;;7.15;3.62;;;;;;;28.71;27.78;99392.09;4363042;32;34213;-86
2023/05/31 11:27:20;;;;;;;9.05;4.07;;;;;;;28.80;30.61;99394.22;4363087;32;33245;-86
2023/05/31 11:29:50;;;;;;;8.95;3.97;;;;;;;28.64;28.77;99385.38;4363292;32;34379;-88
2023/05/31 11:32:22;;;;;;;11.18;3.97;;;;;;;28.95;30.58;99381.78;4376877;32;34963;-87
2023/05/31 11:34:56;;;;;;;10.02;3.58;;;;;;;28.77;29.50;99381.91;4376470;32;35029;-88
2023/05/31 11:37:31;;;;;;;8.63;3.90;;;;;;;28.51;31.44;99379.91;4362672;32;33466;-87
2023/05/31 11:40:06;;;;;;;8.23;3.87;;;;;;;28.38;33.48;99390.44;4338257;32;33118;-86
2023/05/31 11:42:38;;;;;;;10.60;4.35;;;;;;;27.78;33.63;99388.38;4362563;32;34376;-85
2023/05/31 11:45:08;;;;;;;8.57;3.22;;;;;;;27.86;32.29;99379.97;4362793;32;34068;-87
2023/05/31 11:47:55;;;;;;;10.20;4.30;;;;;;;27.92;31.13;99390.31;4362480;32;33437;-88
2023/05/31 11:50:24;;;;;;;13.60;3.87;;;;;;;28.04;30.73;99384.28;4376357;32;33292;-85
2023/05/31 11:52:54;;;;;;;9.50;3.60;;;;;;;28.06;32.61;99385.06;4362725;32;34500;-86
2023/05/31 11:55:22;;;;;;;11.43;4.20;;;;;;;28.09;34.59;99379.56;4362756;32;33766;-85
2023/05/31 11:57:51;;;;;;;9.10;4.28;;;;;;;27.88;32.03;99378.06;4375981;32;33968;-87
2023/05/31 12:00:22;;;;;;;7.15;3.90;;;;;;;28.00;32.46;99380.06;4350311;32;32385;-85